sensor_id;sensor_type;location;lat;lon;timestamp;pressure;altitude;pressure_sealevel;temperature;humidity
60583;BME280;46415;47.536;19.066;2023-01-25T00:01:57;102028.19;;;-0.18;100.00
60583;BME280;46415;47.536;19.066;2023-01-25T00:05:00;102027.22;;;-0.22;100.00
60583;BME280;46415;47.536;19.066;2023-01-25T00:08:03;102031.75;;;-0.12;100.00
60583;BME280;46415;47.536;19.066;2023-01-25T00:11:06;102035.97;;;-0.14;100.00
60583;BME280;46415;47.536;19.066;2023-01-25T00:14:10;102044.47;;;-0.13;100.00
60583;BME280;46415;47.536;19.066;2023-01-25T00:17:13;102049.41;;;-0.19;100.00
60583;BME280;46415;47.536;19.066;2023-01-25T00:20:16;102055.12;;;-0.28;100.00
60583;BME280;46415;47.536;19.066;2023-01-25T00:23:19;102055.94;;;-0.29;100.00
60583;BME280;46415;47.536;19.066;2023-01-25T00:26:21;102046.44;;;-0.34;100.00
60583;BME280;46415;47.536;19.066;2023-01-25T00:29:24;102050.81;;;-0.30;100.00
60583;BME280;46415;47.536;19.066;2023-01-25T00:32:35;102049.84;;;-0.34;100.00
60583;BME280;46415;47.536;19.066;2023-01-25T00:35:47;102043.87;;;-0.34;100.00
60583;BME280;46415;47.536;19.066;2023-01-25T00:38:52;102038.03;;;-0.32;100.00
60583;BME280;46415;47.536;19.066;2023-01-25T00:41:55;102045.75;;;-0.29;100.00
60583;BME280;46415;47.536;19.066;2023-01-25T00:44:58;102038.72;;;-0.37;100.00
60583;BME280;46415;47.536;19.066;2023-01-25T00:48:01;102041.22;;;-0.39;100.00
60583;BME280;46415;47.536;19.066;2023-01-25T00:51:06;102046.16;;;-0.45;100.00
60583;BME280;46415;47.536;19.066;2023-01-25T00:54:09;102047.75;;;-0.49;100.00
60583;BME280;46415;47.536;19.066;2023-01-25T00:57:12;102053.41;;;-0.59;100.00
60583;BME280;46415;47.536;19.066;2023-01-25T01:00:18;102048.91;;;-0.67;100.00
60583;BME280;46415;47.536;19.066;2023-01-25T01:03:21;102049.59;;;-0.73;100.00
60583;BME280;46415;47.536;19.066;2023-01-25T01:06:24;102053.03;;;-0.71;100.00
60583;BME280;46415;47.536;19.066;2023-01-25T01:09:27;102063.94;;;-0.76;100.00
60583;BME280;46415;47.536;19.066;2023-01-25T01:12:32;102063.81;;;-0.81;100.00
60583;BME280;46415;47.536;19.066;2023-01-25T01:15:35;102062.81;;;-0.86;100.00
60583;BME280;46415;47.536;19.066;2023-01-25T01:18:41;102062.69;;;-0.89;100.00
60583;BME280;46415;47.536;19.066;2023-01-25T01:21:44;102054.84;;;-0.97;100.00
60583;BME280;46415;47.536;19.066;2023-01-25T01:24:47;102060.16;;;-0.89;100.00
60583;BME280;46415;47.536;19.066;2023-01-25T01:27:50;102061.41;;;-0.47;100.00
60583;BME280;46415;47.536;19.066;2023-01-25T01:30:58;102063.59;;;-0.59;100.00
60583;BME280;46415;47.536;19.066;2023-01-25T01:34:04;102058.25;;;-0.68;100.00
60583;BME280;46415;47.536;19.066;2023-01-25T01:37:07;102068.13;;;-0.78;100.00
60583;BME280;46415;47.536;19.066;2023-01-25T01:40:14;102068.81;;;-0.84;100.00
60583;BME280;46415;47.536;19.066;2023-01-25T01:43:21;102068.63;;;-0.90;100.00
60583;BME280;46415;47.536;19.066;2023-01-25T01:46:36;102066.03;;;-0.92;100.00
60583;BME280;46415;47.536;19.066;2023-01-25T01:49:40;102061.63;;;-0.97;100.00
60583;BME280;46415;47.536;19.066;2023-01-25T01:52:46;102060.75;;;-0.98;100.00
60583;BME280;46415;47.536;19.066;2023-01-25T01:55:50;102059.78;;;-1.01;100.00
60583;BME280;46415;47.536;19.066;2023-01-25T01:58:55;102049.56;;;-1.03;100.00
60583;BME280;46415;47.536;19.066;2023-01-25T02:02:00;102051.97;;;-1.07;100.00
60583;BME280;46415;47.536;19.066;2023-01-25T02:05:06;102051.81;;;-1.12;100.00
60583;BME280;46415;47.536;19.066;2023-01-25T02:08:12;102050.94;;;-1.14;100.00
60583;BME280;46415;47.536;19.066;2023-01-25T02:11:16;102042.44;;;-1.13;100.00
60583;BME280;46415;47.536;19.066;2023-01-25T02:14:21;102039.87;;;-1.14;100.00
60583;BME280;46415;47.536;19.066;2023-01-25T02:17:29;102042.31;;;-1.17;100.00
60583;BME280;46415;47.536;19.066;2023-01-25T02:20:39;102042.41;;;-1.14;100.00
60583;BME280;46415;47.536;19.066;2023-01-25T02:26:49;102049.88;;;-1.20;100.00
60583;BME280;46415;47.536;19.066;2023-01-25T02:29:52;102048.88;;;-1.24;100.00
60583;BME280;46415;47.536;19.066;2023-01-25T02:32:57;102048.03;;;-1.25;100.00
60583;BME280;46415;47.536;19.066;2023-01-25T02:36:16;102045.53;;;-1.23;100.00
60583;BME280;46415;47.536;19.066;2023-01-25T02:39:21;102030.84;;;-1.32;100.00
60583;BME280;46415;47.536;19.066;2023-01-25T02:42:29;102027.25;;;-1.37;100.00
60583;BME280;46415;47.536;19.066;2023-01-25T02:45:34;102022.34;;;-1.32;100.00
60583;BME280;46415;47.536;19.066;2023-01-25T02:48:37;102019.75;;;-1.34;100.00
60583;BME280;46415;47.536;19.066;2023-01-25T02:51:43;102012.03;;;-1.35;100.00
60583;BME280;46415;47.536;19.066;2023-01-25T02:54:46;102019.31;;;-1.20;100.00
60583;BME280;46415;47.536;19.066;2023-01-25T02:57:49;102013.09;;;-1.29;100.00
60583;BME280;46415;47.536;19.066;2023-01-25T03:00:53;102018.06;;;-1.33;100.00
60583;BME280;46415;47.536;19.066;2023-01-25T03:03:58;102016.06;;;-1.42;100.00
60583;BME280;46415;47.536;19.066;2023-01-25T03:07:01;102014.34;;;-1.43;100.00
60583;BME280;46415;47.536;19.066;2023-01-25T03:10:05;102008.38;;;-1.45;100.00
60583;BME280;46415;47.536;19.066;2023-01-25T03:13:08;102009.97;;;-1.47;100.00
60583;BME280;46415;47.536;19.066;2023-01-25T03:16:13;102020.91;;;-1.51;100.00
60583;BME280;46415;47.536;19.066;2023-01-25T03:19:16;102009.72;;;-1.56;100.00
60583;BME280;46415;47.536;19.066;2023-01-25T03:22:19;102010.53;;;-1.57;100.00
60583;BME280;46415;47.536;19.066;2023-01-25T03:25:23;102003.06;;;-1.51;100.00
60583;BME280;46415;47.536;19.066;2023-01-25T03:28:27;102005.09;;;-1.41;100.00
60583;BME280;46415;47.536;19.066;2023-01-25T03:31:29;102005.22;;;-1.36;100.00
60583;BME280;46415;47.536;19.066;2023-01-25T03:34:33;102011.16;;;-1.37;100.00
60583;BME280;46415;47.536;19.066;2023-01-25T03:37:36;102012.28;;;-1.28;100.00
60583;BME280;46415;47.536;19.066;2023-01-25T03:40:40;102015.16;;;-1.17;100.00
60583;BME280;46415;47.536;19.066;2023-01-25T03:43:44;102015.66;;;-1.00;100.00
60583;BME280;46415;47.536;19.066;2023-01-25T03:46:50;102010.03;;;-0.90;100.00
60583;BME280;46415;47.536;19.066;2023-01-25T03:49:54;102009.16;;;-0.91;100.00
60583;BME280;46415;47.536;19.066;2023-01-25T03:53:35;102009.91;;;-0.93;100.00
60583;BME280;46415;47.536;19.066;2023-01-25T03:56:38;102010.56;;;-1.00;100.00
60583;BME280;46415;47.536;19.066;2023-01-25T03:59:42;102004.28;;;-1.11;100.00
60583;BME280;46415;47.536;19.066;2023-01-25T04:02:45;102007.47;;;-1.18;100.00
60583;BME280;46415;47.536;19.066;2023-01-25T04:05:53;102008.12;;;-1.24;100.00
60583;BME280;46415;47.536;19.066;2023-01-25T04:08:56;102012.09;;;-1.34;100.00
60583;BME280;46415;47.536;19.066;2023-01-25T04:11:59;102004.03;;;-1.47;100.00
60583;BME280;46415;47.536;19.066;2023-01-25T04:15:04;101998.94;;;-1.47;100.00
60583;BME280;46415;47.536;19.066;2023-01-25T04:18:07;101995.19;;;-1.58;100.00
60583;BME280;46415;47.536;19.066;2023-01-25T04:21:13;102004.25;;;-1.67;100.00
60583;BME280;46415;47.536;19.066;2023-01-25T04:24:17;102011.06;;;-1.66;100.00
60583;BME280;46415;47.536;19.066;2023-01-25T04:27:20;102008.31;;;-1.46;100.00
60583;BME280;46415;47.536;19.066;2023-01-25T04:30:25;102008.44;;;-1.42;100.00
60583;BME280;46415;47.536;19.066;2023-01-25T04:33:28;102015.00;;;-1.50;100.00
60583;BME280;46415;47.536;19.066;2023-01-25T04:36:31;102012.13;;;-1.59;100.00
60583;BME280;46415;47.536;19.066;2023-01-25T04:39:34;102023.72;;;-1.69;100.00
60583;BME280;46415;47.536;19.066;2023-01-25T04:42:38;102017.63;;;-1.74;100.00
60583;BME280;46415;47.536;19.066;2023-01-25T04:45:40;102014.91;;;-1.78;100.00
60583;BME280;46415;47.536;19.066;2023-01-25T04:48:44;102018.31;;;-1.78;100.00
60583;BME280;46415;47.536;19.066;2023-01-25T04:51:49;102021.50;;;-1.58;100.00
60583;BME280;46415;47.536;19.066;2023-01-25T04:54:52;102016.00;;;-1.45;100.00
60583;BME280;46415;47.536;19.066;2023-01-25T04:57:55;102009.63;;;-1.31;100.00
60583;BME280;46415;47.536;19.066;2023-01-25T05:01:02;102008.56;;;-1.10;100.00
60583;BME280;46415;47.536;19.066;2023-01-25T05:04:05;102011.47;;;-0.98;100.00
60583;BME280;46415;47.536;19.066;2023-01-25T05:07:09;102013.97;;;-1.00;100.00
60583;BME280;46415;47.536;19.066;2023-01-25T05:10:12;102016.00;;;-0.90;100.00
60583;BME280;46415;47.536;19.066;2023-01-25T05:13:16;102016.94;;;-0.86;100.00
60583;BME280;46415;47.536;19.066;2023-01-25T05:16:19;102014.69;;;-0.75;100.00
60583;BME280;46415;47.536;19.066;2023-01-25T05:19:22;102023.16;;;-0.76;100.00
60583;BME280;46415;47.536;19.066;2023-01-25T05:22:26;102015.38;;;-0.81;100.00
60583;BME280;46415;47.536;19.066;2023-01-25T05:25:29;102022.38;;;-0.74;100.00
60583;BME280;46415;47.536;19.066;2023-01-25T05:28:54;102020.75;;;-0.72;100.00
60583;BME280;46415;47.536;19.066;2023-01-25T05:31:57;102022.56;;;-0.68;100.00
60583;BME280;46415;47.536;19.066;2023-01-25T05:35:00;102025.97;;;-0.67;100.00
60583;BME280;46415;47.536;19.066;2023-01-25T05:38:04;102026.91;;;-0.64;100.00
60583;BME280;46415;47.536;19.066;2023-01-25T05:41:08;102029.34;;;-0.68;100.00
60583;BME280;46415;47.536;19.066;2023-01-25T05:44:12;102021.56;;;-0.73;100.00
60583;BME280;46415;47.536;19.066;2023-01-25T05:47:16;102019.72;;;-0.77;100.00
60583;BME280;46415;47.536;19.066;2023-01-25T05:50:22;102012.25;;;-0.72;100.00
60583;BME280;46415;47.536;19.066;2023-01-25T05:53:26;102014.69;;;-0.75;100.00
60583;BME280;46415;47.536;19.066;2023-01-25T05:56:30;102014.47;;;-0.83;100.00
60583;BME280;46415;47.536;19.066;2023-01-25T05:59:33;102020.41;;;-0.84;100.00
60583;BME280;46415;47.536;19.066;2023-01-25T06:02:36;102017.19;;;-0.77;100.00
60583;BME280;46415;47.536;19.066;2023-01-25T06:05:39;102020.28;;;-0.87;100.00
60583;BME280;46415;47.536;19.066;2023-01-25T06:08:43;102016.81;;;-0.89;100.00
60583;BME280;46415;47.536;19.066;2023-01-25T06:11:46;102021.16;;;-0.87;100.00
60583;BME280;46415;47.536;19.066;2023-01-25T06:14:49;102023.59;;;-0.91;100.00
60583;BME280;46415;47.536;19.066;2023-01-25T06:17:55;102032.03;;;-0.92;100.00
60583;BME280;46415;47.536;19.066;2023-01-25T06:20:59;102022.91;;;-0.86;100.00
60583;BME280;46415;47.536;19.066;2023-01-25T06:24:03;102030.84;;;-0.75;100.00
60583;BME280;46415;47.536;19.066;2023-01-25T06:27:06;102040.41;;;-0.68;100.00
60583;BME280;46415;47.536;19.066;2023-01-25T06:30:10;102043.94;;;-0.63;100.00
60583;BME280;46415;47.536;19.066;2023-01-25T06:33:15;102038.78;;;-0.64;100.00
60583;BME280;46415;47.536;19.066;2023-01-25T06:36:19;102044.50;;;-0.73;100.00
60583;BME280;46415;47.536;19.066;2023-01-25T06:39:22;102056.16;;;-0.81;100.00
60583;BME280;46415;47.536;19.066;2023-01-25T06:42:25;102050.31;;;-0.77;100.00
60583;BME280;46415;47.536;19.066;2023-01-25T06:45:28;102051.34;;;-0.72;100.00
60583;BME280;46415;47.536;19.066;2023-01-25T06:48:31;102058.84;;;-0.76;100.00
60583;BME280;46415;47.536;19.066;2023-01-25T06:51:34;102057.03;;;-0.80;100.00
60583;BME280;46415;47.536;19.066;2023-01-25T06:54:38;102053.72;;;-0.76;100.00
60583;BME280;46415;47.536;19.066;2023-01-25T06:57:40;102048.31;;;-0.87;100.00
60583;BME280;46415;47.536;19.066;2023-01-25T07:00:44;102048.62;;;-0.78;100.00
60583;BME280;46415;47.536;19.066;2023-01-25T07:03:48;102049.25;;;-0.85;100.00
60583;BME280;46415;47.536;19.066;2023-01-25T07:06:52;102048.84;;;-0.99;100.00
60583;BME280;46415;47.536;19.066;2023-01-25T07:09:54;102055.47;;;-1.04;100.00
60583;BME280;46415;47.536;19.066;2023-01-25T07:12:57;102056.59;;;-0.96;100.00
60583;BME280;46415;47.536;19.066;2023-01-25T07:16:03;102053.56;;;-0.83;100.00
60583;BME280;46415;47.536;19.066;2023-01-25T07:19:08;102052.84;;;-0.78;100.00
60583;BME280;46415;47.536;19.066;2023-01-25T07:22:11;102042.94;;;-0.68;100.00
60583;BME280;46415;47.536;19.066;2023-01-25T07:25:15;102039.72;;;-0.62;100.00
60583;BME280;46415;47.536;19.066;2023-01-25T07:28:17;102045.97;;;-0.51;100.00
60583;BME280;46415;47.536;19.066;2023-01-25T07:31:21;102042.16;;;-0.35;100.00
60583;BME280;46415;47.536;19.066;2023-01-25T07:34:24;102044.06;;;-0.28;100.00
60583;BME280;46415;47.536;19.066;2023-01-25T07:37:27;102050.81;;;-0.30;100.00
60583;BME280;46415;47.536;19.066;2023-01-25T07:40:30;102048.97;;;-0.36;100.00
60583;BME280;46415;47.536;19.066;2023-01-25T07:43:33;102047.41;;;-0.31;100.00
60583;BME280;46415;47.536;19.066;2023-01-25T07:46:36;102045.12;;;-0.20;100.00
60583;BME280;46415;47.536;19.066;2023-01-25T07:49:38;102046.59;;;0.03;100.00
60583;BME280;46415;47.536;19.066;2023-01-25T07:52:41;102049.53;;;0.17;100.00
60583;BME280;46415;47.536;19.066;2023-01-25T07:55:44;102046.25;;;0.22;100.00
60583;BME280;46415;47.536;19.066;2023-01-25T07:58:47;102039.47;;;0.23;100.00
60583;BME280;46415;47.536;19.066;2023-01-25T08:01:50;102048.28;;;0.35;100.00
60583;BME280;46415;47.536;19.066;2023-01-25T08:04:54;102043.44;;;0.46;100.00
60583;BME280;46415;47.536;19.066;2023-01-25T08:07:56;102041.09;;;0.55;100.00
60583;BME280;46415;47.536;19.066;2023-01-25T08:11:06;102039.56;;;0.62;100.00
60583;BME280;46415;47.536;19.066;2023-01-25T08:14:10;102042.88;;;0.58;100.00
60583;BME280;46415;47.536;19.066;2023-01-25T08:17:13;102036.28;;;0.67;100.00
60583;BME280;46415;47.536;19.066;2023-01-25T08:20:17;102037.66;;;0.89;100.00
60583;BME280;46415;47.536;19.066;2023-01-25T08:23:21;102037.69;;;0.92;100.00
60583;BME280;46415;47.536;19.066;2023-01-25T08:26:24;102038.53;;;1.32;100.00
60583;BME280;46415;47.536;19.066;2023-01-25T08:29:27;102033.66;;;1.42;100.00
60583;BME280;46415;47.536;19.066;2023-01-25T08:32:30;102034.66;;;1.49;100.00
60583;BME280;46415;47.536;19.066;2023-01-25T08:35:35;102035.31;;;1.40;100.00
60583;BME280;46415;47.536;19.066;2023-01-25T08:38:38;102030.22;;;1.40;100.00
60583;BME280;46415;47.536;19.066;2023-01-25T08:41:42;102029.75;;;1.61;100.00
60583;BME280;46415;47.536;19.066;2023-01-25T08:44:46;102029.50;;;1.92;100.00
60583;BME280;46415;47.536;19.066;2023-01-25T08:47:49;102024.41;;;1.94;100.00
60583;BME280;46415;47.536;19.066;2023-01-25T08:50:53;102019.50;;;2.06;100.00
60583;BME280;46415;47.536;19.066;2023-01-25T08:54:00;102026.56;;;2.19;100.00
60583;BME280;46415;47.536;19.066;2023-01-25T08:57:03;102025.72;;;2.19;100.00
60583;BME280;46415;47.536;19.066;2023-01-25T09:00:09;102021.75;;;2.37;100.00
60583;BME280;46415;47.536;19.066;2023-01-25T09:03:13;102019.31;;;2.46;100.00
60583;BME280;46415;47.536;19.066;2023-01-25T09:06:17;102029.06;;;2.69;100.00
60583;BME280;46415;47.536;19.066;2023-01-25T09:09:21;102025.94;;;2.88;100.00
60583;BME280;46415;47.536;19.066;2023-01-25T09:12:26;102022.56;;;2.91;100.00
60583;BME280;46415;47.536;19.066;2023-01-25T09:15:29;102025.28;;;3.01;100.00
60583;BME280;46415;47.536;19.066;2023-01-25T09:18:34;102026.25;;;3.09;100.00
60583;BME280;46415;47.536;19.066;2023-01-25T09:21:37;102020.78;;;2.86;100.00
60583;BME280;46415;47.536;19.066;2023-01-25T09:24:40;102015.03;;;3.03;100.00
60583;BME280;46415;47.536;19.066;2023-01-25T09:27:43;102016.69;;;2.98;100.00
60583;BME280;46415;47.536;19.066;2023-01-25T09:30:58;102011.72;;;3.11;100.00
60583;BME280;46415;47.536;19.066;2023-01-25T09:34:24;102013.41;;;3.11;100.00
60583;BME280;46415;47.536;19.066;2023-01-25T09:37:27;102015.81;;;2.99;100.00
60583;BME280;46415;47.536;19.066;2023-01-25T09:40:32;102016.59;;;2.92;100.00
60583;BME280;46415;47.536;19.066;2023-01-25T09:47:23;102015.31;;;2.64;100.00
60583;BME280;46415;47.536;19.066;2023-01-25T09:50:35;102009.31;;;2.62;100.00
60583;BME280;46415;47.536;19.066;2023-01-25T09:53:40;101999.00;;;2.59;100.00
60583;BME280;46415;47.536;19.066;2023-01-25T09:56:47;101988.94;;;2.71;100.00
60583;BME280;46415;47.536;19.066;2023-01-25T09:59:52;101991.59;;;2.77;100.00
60583;BME280;46415;47.536;19.066;2023-01-25T10:03:17;101983.25;;;2.90;100.00
60583;BME280;46415;47.536;19.066;2023-01-25T10:06:30;101977.50;;;3.09;100.00
60583;BME280;46415;47.536;19.066;2023-01-25T10:09:42;101971.81;;;3.35;100.00
60583;BME280;46415;47.536;19.066;2023-01-25T10:12:49;101958.25;;;3.46;100.00
60583;BME280;46415;47.536;19.066;2023-01-25T10:15:56;101955.72;;;3.48;100.00
60583;BME280;46415;47.536;19.066;2023-01-25T10:22:33;101949.81;;;3.58;100.00
60583;BME280;46415;47.536;19.066;2023-01-25T10:25:45;101947.34;;;3.65;100.00
60583;BME280;46415;47.536;19.066;2023-01-25T10:29:14;101939.53;;;3.58;100.00
60583;BME280;46415;47.536;19.066;2023-01-25T10:32:29;101946.31;;;3.50;100.00
60583;BME280;46415;47.536;19.066;2023-01-25T10:35:44;101939.63;;;3.65;100.00
60583;BME280;46415;47.536;19.066;2023-01-25T10:38:48;101930.22;;;3.66;100.00
60583;BME280;46415;47.536;19.066;2023-01-25T10:42:06;101919.31;;;3.90;100.00
60583;BME280;46415;47.536;19.066;2023-01-25T10:45:12;101922.91;;;4.13;100.00
60583;BME280;46415;47.536;19.066;2023-01-25T10:48:35;101922.94;;;4.15;100.00
60583;BME280;46415;47.536;19.066;2023-01-25T10:51:38;101910.91;;;4.12;100.00
60583;BME280;46415;47.536;19.066;2023-01-25T10:54:41;101916.94;;;4.11;100.00
60583;BME280;46415;47.536;19.066;2023-01-25T10:57:48;101907.53;;;4.15;100.00
60583;BME280;46415;47.536;19.066;2023-01-25T11:00:52;101903.34;;;4.29;100.00
60583;BME280;46415;47.536;19.066;2023-01-25T11:03:58;101898.31;;;4.45;100.00
60583;BME280;46415;47.536;19.066;2023-01-25T11:07:03;101898.13;;;4.15;100.00
60583;BME280;46415;47.536;19.066;2023-01-25T11:10:35;101894.78;;;4.31;100.00
60583;BME280;46415;47.536;19.066;2023-01-25T11:13:39;101890.50;;;4.29;100.00
60583;BME280;46415;47.536;19.066;2023-01-25T11:16:45;101881.91;;;4.25;100.00
60583;BME280;46415;47.536;19.066;2023-01-25T11:20:14;101880.16;;;4.17;100.00
60583;BME280;46415;47.536;19.066;2023-01-25T11:23:24;101875.00;;;4.18;100.00
60583;BME280;46415;47.536;19.066;2023-01-25T11:26:29;101870.72;;;4.19;100.00
60583;BME280;46415;47.536;19.066;2023-01-25T11:29:32;101862.09;;;4.12;100.00
60583;BME280;46415;47.536;19.066;2023-01-25T11:32:37;101861.34;;;4.27;100.00
60583;BME280;46415;47.536;19.066;2023-01-25T11:36:12;101857.13;;;4.41;100.00
60583;BME280;46415;47.536;19.066;2023-01-25T11:43:13;101839.97;;;4.32;100.00
60583;BME280;46415;47.536;19.066;2023-01-25T11:53:24;101816.16;;;4.79;100.00
60583;BME280;46415;47.536;19.066;2023-01-25T12:06:32;101779.22;;;4.51;100.00
60583;BME280;46415;47.536;19.066;2023-01-25T12:13:29;101780.16;;;4.70;100.00
60583;BME280;46415;47.536;19.066;2023-01-25T12:23:11;101762.09;;;4.56;100.00
60583;BME280;46415;47.536;19.066;2023-01-25T12:26:26;101768.97;;;4.57;100.00
60583;BME280;46415;47.536;19.066;2023-01-25T12:29:50;101756.94;;;4.53;100.00
60583;BME280;46415;47.536;19.066;2023-01-25T12:33:26;101759.53;;;4.55;100.00
60583;BME280;46415;47.536;19.066;2023-01-25T12:36:33;101761.22;;;4.46;100.00
60583;BME280;46415;47.536;19.066;2023-01-25T12:40:08;101761.19;;;4.40;100.00
60583;BME280;46415;47.536;19.066;2023-01-25T12:43:14;101754.28;;;4.26;100.00
60583;BME280;46415;47.536;19.066;2023-01-25T12:46:44;101752.59;;;4.35;100.00
60583;BME280;46415;47.536;19.066;2023-01-25T12:49:57;101746.63;;;4.39;100.00
60583;BME280;46415;47.536;19.066;2023-01-25T12:57:22;101737.19;;;4.32;100.00
60583;BME280;46415;47.536;19.066;2023-01-25T13:00:23;101727.72;;;4.24;100.00
60583;BME280;46415;47.536;19.066;2023-01-25T13:03:33;101721.72;;;4.23;100.00
60583;BME280;46415;47.536;19.066;2023-01-25T13:06:49;101731.09;;;4.14;100.00
60583;BME280;46415;47.536;19.066;2023-01-25T13:10:16;101720.88;;;4.23;100.00
60583;BME280;46415;47.536;19.066;2023-01-25T13:13:22;101720.88;;;4.30;100.00
60583;BME280;46415;47.536;19.066;2023-01-25T13:25:44;101710.59;;;4.26;100.00
60583;BME280;46415;47.536;19.066;2023-01-25T13:28:49;101707.16;;;4.16;100.00
60583;BME280;46415;47.536;19.066;2023-01-25T13:31:52;101702.03;;;4.22;100.00
60583;BME280;46415;47.536;19.066;2023-01-25T13:35:02;101698.59;;;4.25;100.00
60583;BME280;46415;47.536;19.066;2023-01-25T13:38:27;101692.69;;;4.45;100.00
60583;BME280;46415;47.536;19.066;2023-01-25T13:41:30;101696.94;;;4.45;100.00
60583;BME280;46415;47.536;19.066;2023-01-25T13:44:34;101696.09;;;4.44;100.00
60583;BME280;46415;47.536;19.066;2023-01-25T13:47:38;101694.41;;;4.53;100.00
60583;BME280;46415;47.536;19.066;2023-01-25T13:50:52;101694.37;;;4.43;100.00
60583;BME280;46415;47.536;19.066;2023-01-25T13:53:58;101692.66;;;4.42;100.00
60583;BME280;46415;47.536;19.066;2023-01-25T13:57:06;101688.41;;;4.50;100.00
60583;BME280;46415;47.536;19.066;2023-01-25T14:00:23;101686.69;;;4.54;100.00
60583;BME280;46415;47.536;19.066;2023-01-25T14:03:39;101682.41;;;4.55;100.00
60583;BME280;46415;47.536;19.066;2023-01-25T14:06:43;101687.53;;;4.48;100.00
60583;BME280;46415;47.536;19.066;2023-01-25T14:09:47;101675.50;;;4.32;100.00
60583;BME280;46415;47.536;19.066;2023-01-25T14:12:51;101683.97;;;4.04;100.00
60583;BME280;46415;47.536;19.066;2023-01-25T14:15:59;101677.97;;;4.06;100.00
60583;BME280;46415;47.536;19.066;2023-01-25T14:19:23;101666.84;;;4.06;100.00
60583;BME280;46415;47.536;19.066;2023-01-25T14:22:28;101674.56;;;4.04;100.00
60583;BME280;46415;47.536;19.066;2023-01-25T14:25:32;101673.63;;;3.89;100.00
60583;BME280;46415;47.536;19.066;2023-01-25T14:28:35;101681.31;;;3.86;100.00
60583;BME280;46415;47.536;19.066;2023-01-25T14:31:38;101673.63;;;3.87;100.00
60583;BME280;46415;47.536;19.066;2023-01-25T14:34:41;101673.63;;;3.86;100.00
60583;BME280;46415;47.536;19.066;2023-01-25T14:37:44;101666.72;;;3.82;100.00
60583;BME280;46415;47.536;19.066;2023-01-25T14:40:49;101672.72;;;3.78;100.00
60583;BME280;46415;47.536;19.066;2023-01-25T14:44:00;101667.53;;;3.70;100.00
60583;BME280;46415;47.536;19.066;2023-01-25T14:47:29;101667.56;;;3.75;100.00
60583;BME280;46415;47.536;19.066;2023-01-25T14:50:36;101668.38;;;3.64;100.00
60583;BME280;46415;47.536;19.066;2023-01-25T14:53:42;101668.31;;;3.55;100.00
60583;BME280;46415;47.536;19.066;2023-01-25T14:59:51;101657.16;;;3.49;100.00
60583;BME280;46415;47.536;19.066;2023-01-25T15:02:57;101655.44;;;3.46;100.00
60583;BME280;46415;47.536;19.066;2023-01-25T15:06:03;101655.38;;;3.40;100.00
60583;BME280;46415;47.536;19.066;2023-01-25T15:09:39;101658.78;;;3.35;100.00
60583;BME280;46415;47.536;19.066;2023-01-25T15:16:16;101649.28;;;3.20;100.00
60583;BME280;46415;47.536;19.066;2023-01-25T15:19:25;101654.41;;;3.15;100.00
60583;BME280;46415;47.536;19.066;2023-01-25T15:22:28;101652.66;;;3.13;100.00
60583;BME280;46415;47.536;19.066;2023-01-25T15:25:33;101651.75;;;3.08;100.00
60583;BME280;46415;47.536;19.066;2023-01-25T15:28:36;101647.53;;;3.13;100.00
60583;BME280;46415;47.536;19.066;2023-01-25T15:31:39;101649.19;;;3.08;100.00
60583;BME280;46415;47.536;19.066;2023-01-25T15:34:42;101645.75;;;3.06;100.00
60583;BME280;46415;47.536;19.066;2023-01-25T15:37:46;101647.47;;;3.05;100.00
60583;BME280;46415;47.536;19.066;2023-01-25T15:40:53;101648.34;;;3.10;100.00
60583;BME280;46415;47.536;19.066;2023-01-25T15:44:02;101650.91;;;3.10;100.00
60583;BME280;46415;47.536;19.066;2023-01-25T15:47:04;101646.63;;;3.06;100.00
60583;BME280;46415;47.536;19.066;2023-01-25T15:50:16;101649.12;;;2.99;100.00
60583;BME280;46415;47.536;19.066;2023-01-25T15:53:19;101646.50;;;2.93;100.00
60583;BME280;46415;47.536;19.066;2023-01-25T15:56:25;101651.66;;;2.94;100.00
60583;BME280;46415;47.536;19.066;2023-01-25T15:59:30;101644.78;;;2.88;100.00
60583;BME280;46415;47.536;19.066;2023-01-25T16:02:33;101644.75;;;2.87;100.00
60583;BME280;46415;47.536;19.066;2023-01-25T16:05:36;101636.22;;;2.85;100.00
60583;BME280;46415;47.536;19.066;2023-01-25T16:08:39;101635.41;;;2.91;100.00
60583;BME280;46415;47.536;19.066;2023-01-25T16:11:42;101625.09;;;2.87;100.00
60583;BME280;46415;47.536;19.066;2023-01-25T16:14:44;101627.66;;;2.84;100.00
60583;BME280;46415;47.536;19.066;2023-01-25T16:17:47;101625.09;;;2.87;100.00
60583;BME280;46415;47.536;19.066;2023-01-25T16:20:51;101628.44;;;2.80;100.00
60583;BME280;46415;47.536;19.066;2023-01-25T16:23:55;101628.53;;;2.85;100.00
60583;BME280;46415;47.536;19.066;2023-01-25T16:26:58;101627.66;;;2.86;100.00
60583;BME280;46415;47.536;19.066;2023-01-25T16:30:03;101630.28;;;2.91;100.00
60583;BME280;46415;47.536;19.066;2023-01-25T16:33:09;101623.37;;;2.86;100.00
60583;BME280;46415;47.536;19.066;2023-01-25T16:36:19;101626.87;;;2.95;100.00
60583;BME280;46415;47.536;19.066;2023-01-25T16:39:24;101624.25;;;2.85;100.00
60583;BME280;46415;47.536;19.066;2023-01-25T16:42:29;101618.19;;;2.80;100.00
60583;BME280;46415;47.536;19.066;2023-01-25T16:45:33;101617.31;;;2.75;100.00
60583;BME280;46415;47.536;19.066;2023-01-25T16:48:37;101618.16;;;2.73;100.00
60583;BME280;46415;47.536;19.066;2023-01-25T16:51:40;101623.31;;;2.77;100.00
60583;BME280;46415;47.536;19.066;2023-01-25T16:54:43;101621.62;;;2.81;100.00
60583;BME280;46415;47.536;19.066;2023-01-25T16:57:48;101628.50;;;2.83;100.00